Time;durP1;ratioP1;P1;durP2;ratioP2;P2;SDS_P1;SDS_P2;PMS_P1;PMS_P2;Temp;Humidity;BMP_temperature;BMP_pressure;BME280_temperature;BME280_humidity;BME280_pressure;Samples;Min_cycle;Max_cycle;Signal;HPM_P1;HPM_P2
2022/05/11 00:00:35;;;;;;;;;;;;;;;17.22;40.03;101144.47;4805240;29;904;-60
2022/05/11 00:03:00;;;;;;;;;;;;;;;17.10;40.26;101145.53;4807767;29;1507;-60
2022/05/11 00:05:26;;;;;;;;;;;;;;;17.07;39.99;101137.81;4809125;29;1109;-61
2022/05/11 00:07:51;;;;;;;;;;;;;;;17.00;39.93;101125.41;4808327;29;1184;-61
2022/05/11 00:10:17;;;;;;;;;;;;;;;17.01;40.34;101138.91;4809010;29;792;-61
2022/05/11 00:12:42;;;;;;;;;;;;;;;17.16;41.53;101132.63;4809105;29;1911;-61
2022/05/11 00:15:09;;;;;;;;;;;;;;;17.49;43.35;101135.19;4807959;29;873;-62
2022/05/11 00:17:34;;;;;;;;;;;;;;;17.90;44.73;101144.38;4808813;29;819;-61
2022/05/11 00:20:00;;;;;;;;;;;;;;;18.25;45.11;101129.00;4809070;29;1134;-62
2022/05/11 00:22:25;;;;;;;;;;;;;;;18.45;45.77;101138.34;4808493;29;823;-62
2022/05/11 00:24:51;;;;;;;;;;;;;;;18.59;46.19;101138.59;4808796;29;776;-62
2022/05/11 00:27:16;;;;;;;;;;;;;;;18.36;46.33;101131.75;4808814;29;1212;-61
2022/05/11 00:29:41;;;;;;;;;;;;;;;18.18;45.28;101125.69;4808280;29;831;-62
2022/05/11 00:32:07;;;;;;;;;;;;;;;17.97;44.21;101130.38;4808214;29;1978;-63
2022/05/11 00:34:33;;;;;;;;;;;;;;;17.67;42.86;101131.97;4809161;29;750;-61
2022/05/11 00:36:59;;;;;;;;;;;;;;;17.47;41.66;101118.16;4808567;29;937;-61
2022/05/11 00:39:25;;;;;;;;;;;;;;;17.31;40.77;101126.38;4808250;29;756;-61
2022/05/11 00:41:51;;;;;;;;;;;;;;;17.16;39.98;101115.31;4808271;29;914;-61
2022/05/11 00:44:17;;;;;;;;;;;;;;;17.03;39.74;101120.22;4808245;29;1455;-60
2022/05/11 00:46:46;;;;;;;;;;;;;;;16.97;39.50;101121.31;4808014;29;981;-61
2022/05/11 00:49:34;;;;;;;;;;;;;;;16.91;39.30;101117.72;4809086;29;861;-61
2022/05/11 00:52:02;;;;;;;;;;;;;;;16.96;39.92;101111.41;4808151;29;1911;-59
2022/05/11 00:54:28;;;;;;;;;;;;;;;17.14;41.50;101107.34;4808791;29;874;-60
2022/05/11 00:56:54;;;;;;;;;;;;;;;17.52;43.51;101115.44;4808496;29;1205;-59
2022/05/11 00:59:27;;;;;;;;;;;;;;;17.85;45.13;101105.88;4810979;29;817;-59
2022/05/11 01:01:53;;;;;;;;;;;;;;;18.14;45.95;101105.31;4811635;29;1012;-59
2022/05/11 01:04:20;;;;;;;;;;;;;;;18.38;46.56;101105.56;4810275;29;1091;-60
2022/05/11 01:06:45;;;;;;;;;;;;;;;18.55;47.04;101097.03;4811748;29;858;-60
2022/05/11 01:09:11;;;;;;;;;;;;;;;18.45;46.49;101103.38;4810126;29;1067;-61
2022/05/11 01:11:37;;;;;;;;;;;;;;;18.19;45.89;101098.97;4811115;29;1972;-60
2022/05/11 01:14:03;;;;;;;;;;;;;;;17.99;44.31;101091.56;4811235;29;709;-60
2022/05/11 01:16:29;;;;;;;;;;;;;;;17.71;42.96;101089.06;4810559;29;1097;-60
2022/05/11 01:18:54;;;;;;;;;;;;;;;17.49;41.94;101083.81;4809929;29;898;-62
2022/05/11 01:21:21;;;;;;;;;;;;;;;17.33;40.80;101084.88;4810455;29;828;-61
2022/05/11 01:23:50;;;;;;;;;;;;;;;17.19;40.31;101096.38;4810016;29;856;-62
2022/05/11 01:26:16;;;;;;;;;;;;;;;17.13;39.70;101091.97;4811270;29;823;-62
2022/05/11 01:28:42;;;;;;;;;;;;;;;17.00;39.24;101097.94;4811065;29;1369;-62
2022/05/11 01:31:08;;;;;;;;;;;;;;;17.04;39.98;101091.66;4810980;29;805;-61
2022/05/11 01:33:34;;;;;;;;;;;;;;;17.16;41.23;101094.16;4810715;29;1982;-62
2022/05/11 01:36:08;;;;;;;;;;;;;;;17.30;42.49;101099.97;4811406;29;832;-63
2022/05/11 01:38:40;;;;;;;;;;;;;;;17.49;43.50;101097.56;4810944;29;745;-62
2022/05/11 01:41:05;;;;;;;;;;;;;;;17.57;43.92;101096.19;4811164;29;793;-63
2022/05/11 01:43:33;;;;;;;;;;;;;;;17.67;44.38;101101.72;4810821;29;844;-62
2022/05/11 01:45:59;;;;;;;;;;;;;;;17.72;44.78;101098.94;4809995;29;918;-62
2022/05/11 01:48:25;;;;;;;;;;;;;;;17.84;44.66;101095.09;4811105;29;793;-62
2022/05/11 01:50:50;;;;;;;;;;;;;;;17.84;44.95;101097.84;4811186;29;884;-61
2022/05/11 01:53:15;;;;;;;;;;;;;;;17.90;45.40;101105.03;4810448;29;1908;-61
2022/05/11 01:55:41;;;;;;;;;;;;;;;18.01;45.33;101101.22;4810674;29;786;-61
2022/05/11 01:58:11;;;;;;;;;;;;;;;18.01;45.47;101112.22;4809272;29;1224;-61
2022/05/11 02:00:36;;;;;;;;;;;;;;;18.07;45.20;101102.84;4810412;29;789;-61
2022/05/11 02:03:02;;;;;;;;;;;;;;;18.13;45.28;101101.75;4810810;29;880;-61
2022/05/11 02:08:11;;;;;;;;;;;;;;;18.12;45.51;101091.84;4809802;29;796;-62
2022/05/11 02:10:37;;;;;;;;;;;;;;;18.17;45.52;101099.25;4810656;29;850;-62
2022/05/11 02:13:02;;;;;;;;;;;;;;;18.02;45.03;101099.28;4810413;29;1980;-61
2022/05/11 02:15:28;;;;;;;;;;;;;;;17.85;44.05;101102.28;4809846;29;888;-61
2022/05/11 02:17:54;;;;;;;;;;;;;;;17.65;42.81;101094.84;4810939;29;760;-61
2022/05/11 02:20:19;;;;;;;;;;;;;;;17.39;41.89;101100.25;4810280;29;867;-61
2022/05/11 02:22:45;;;;;;;;;;;;;;;17.28;40.88;101104.94;4809882;29;866;-60
2022/05/11 02:25:11;;;;;;;;;;;;;;;17.19;40.20;101101.84;4810450;29;841;-61
2022/05/11 02:27:36;;;;;;;;;;;;;;;17.03;39.70;101098.25;4810111;29;1208;-61
2022/05/11 02:30:02;;;;;;;;;;;;;;;16.97;39.66;101098.47;4809893;29;1178;-61
2022/05/11 02:32:28;;;;;;;;;;;;;;;16.92;39.57;101097.38;4810319;29;1964;-61
2022/05/11 02:37:38;;;;;;;;;;;;;;;17.34;42.42;101103.84;4791920;30;829;-60
2022/05/11 02:40:03;;;;;;;;;;;;;;;17.72;44.42;101106.38;4792015;29;915;-61
2022/05/11 02:42:29;;;;;;;;;;;;;;;18.10;45.71;101105.06;4791928;29;782;-61
2022/05/11 02:44:54;;;;;;;;;;;;;;;18.42;45.96;101112.16;4792679;29;868;-61
2022/05/11 02:47:19;;;;;;;;;;;;;;;18.57;46.51;101110.50;4809704;29;1201;-63
2022/05/11 02:49:45;;;;;;;;;;;;;;;18.74;46.91;101107.44;4809300;29;862;-63
2022/05/11 02:52:11;;;;;;;;;;;;;;;18.43;46.50;101102.81;4809642;29;1907;-63
2022/05/11 02:54:36;;;;;;;;;;;;;;;18.18;45.15;101103.69;4809646;29;891;-63
2022/05/11 02:57:02;;;;;;;;;;;;;;;17.85;43.71;101108.63;4800246;29;1409;-59
2022/05/11 02:59:28;;;;;;;;;;;;;;;17.57;42.27;101108.03;4791431;29;812;-59
2022/05/11 03:01:54;;;;;;;;;;;;;;;17.46;40.85;101103.59;4807214;29;981;-59
2022/05/11 03:04:19;;;;;;;;;;;;;;;17.22;40.22;101101.34;4808182;29;1349;-61
2022/05/11 03:06:47;;;;;;;;;;;;;;;17.08;39.51;101098.28;4809542;29;789;-59
2022/05/11 03:09:15;;;;;;;;;;;;;;;17.01;39.59;101103.19;4809017;29;1099;-60
2022/05/11 03:11:41;;;;;;;;;;;;;;;17.17;40.37;101103.25;4807388;29;1904;-61
2022/05/11 03:14:07;;;;;;;;;;;;;;;17.31;41.57;101106.31;4808399;29;1312;-59
2022/05/11 03:16:32;;;;;;;;;;;;;;;17.42;42.58;101108.81;4808667;29;1248;-60
2022/05/11 03:18:59;;;;;;;;;;;;;;;17.52;43.34;101112.69;4809153;29;1236;-60
2022/05/11 03:21:25;;;;;;;;;;;;;;;17.61;43.78;101109.13;4808740;29;1335;-61
2022/05/11 03:23:50;;;;;;;;;;;;;;;17.70;44.37;101105.84;4808628;29;1224;-60
2022/05/11 03:26:15;;;;;;;;;;;;;;;17.74;44.36;101110.53;4808787;29;1311;-60
2022/05/11 03:28:41;;;;;;;;;;;;;;;17.81;44.87;101106.66;4807163;29;1330;-58
2022/05/11 03:31:06;;;;;;;;;;;;;;;17.85;45.09;101108.63;4808701;29;1272;-59
2022/05/11 03:36:16;;;;;;;;;;;;;;;17.98;44.74;101117.44;4809030;29;793;-58
2022/05/11 03:38:41;;;;;;;;;;;;;;;17.97;44.81;101116.63;4808654;29;862;-58
2022/05/11 03:41:07;;;;;;;;;;;;;;;17.98;45.21;101118.28;4808177;29;1010;-57
2022/05/11 03:43:32;;;;;;;;;;;;;;;18.01;45.07;101112.22;4808632;29;733;-58
2022/05/11 03:45:59;;;;;;;;;;;;;;;18.03;45.04;101104.50;4809208;29;976;-58
2022/05/11 03:48:25;;;;;;;;;;;;;;;18.08;44.89;101118.25;4809198;29;1153;-59
2022/05/11 03:50:50;;;;;;;;;;;;;;;18.05;44.85;101112.50;4808326;29;1308;-59
2022/05/11 03:53:16;;;;;;;;;;;;;;;18.13;44.83;101123.78;4808431;29;1976;-57
2022/05/11 03:55:41;;;;;;;;;;;;;;;18.18;44.67;101116.63;4808308;29;1209;-54
2022/05/11 03:58:07;;;;;;;;;;;;;;;18.14;44.89;101121.84;4791442;29;1152;-58
2022/05/11 04:00:32;;;;;;;;;;;;;;;18.21;44.79;101113.31;4795529;29;1041;-58
2022/05/11 04:02:58;;;;;;;;;;;;;;;18.25;45.02;101117.97;4806031;29;1240;-58
2022/05/11 04:05:24;;;;;;;;;;;;;;;18.24;44.97;101119.09;4807577;29;1225;-58
2022/05/11 04:07:49;;;;;;;;;;;;;;;18.22;44.54;101121.28;4808333;29;1298;-59
2022/05/11 04:10:15;;;;;;;;;;;;;;;18.16;43.93;101124.31;4808557;29;1213;-59
2022/05/11 04:12:40;;;;;;;;;;;;;;;17.92;43.25;101119.34;4807478;29;1985;-60
2022/05/11 04:15:06;;;;;;;;;;;;;;;17.74;42.48;101124.28;4807940;29;1296;-59
2022/05/11 04:17:32;;;;;;;;;;;;;;;17.49;41.58;101133.31;4807548;29;1240;-60
2022/05/11 04:19:57;;;;;;;;;;;;;;;17.37;40.75;101130.78;4807859;29;1261;-59
2022/05/11 04:22:23;;;;;;;;;;;;;;;17.26;40.26;101146.44;4809187;29;1225;-58
2022/05/11 04:24:48;;;;;;;;;;;;;;;17.14;39.79;101134.84;4808065;29;1295;-58
2022/05/11 04:27:15;;;;;;;;;;;;;;;17.06;39.40;101141.66;4808277;29;1077;-57
2022/05/11 04:29:41;;;;;;;;;;;;;;;17.01;39.37;101136.16;4808931;29;886;-57
2022/05/11 04:32:07;;;;;;;;;;;;;;;17.13;40.53;101146.09;4809039;29;1984;-58
2022/05/11 04:34:33;;;;;;;;;;;;;;;17.48;42.56;101130.81;4812088;29;946;-58
2022/05/11 04:36:58;;;;;;;;;;;;;;;17.85;44.41;101140.78;4812534;29;844;-58
2022/05/11 04:39:24;;;;;;;;;;;;;;;18.19;45.09;101145.78;4812470;29;844;-58
2022/05/11 04:41:49;;;;;;;;;;;;;;;18.42;45.70;101138.88;4812033;29;828;-58
2022/05/11 04:44:14;;;;;;;;;;;;;;;18.62;46.34;101143.53;4811558;29;850;-58
2022/05/11 04:46:40;;;;;;;;;;;;;;;18.77;46.58;101143.50;4811614;29;985;-59
2022/05/11 04:49:19;;;;;;;;;;;;;;;18.77;46.68;101140.75;4810758;29;1515;-58
2022/05/11 04:51:48;;;;;;;;;;;;;;;18.25;46.54;101140.00;4812313;29;1980;-58
2022/05/11 04:54:14;;;;;;;;;;;;;;;17.70;46.09;101144.34;4812230;29;811;-59
2022/05/11 04:56:39;;;;;;;;;;;;;;;17.70;44.14;101149.84;4811416;29;929;-58
2022/05/11 04:59:05;;;;;;;;;;;;;;;17.52;42.30;101148.44;4812313;29;832;-59
2022/05/11 05:01:31;;;;;;;;;;;;;;;17.33;41.03;101153.59;4811827;29;1095;-59
2022/05/11 05:03:56;;;;;;;;;;;;;;;17.23;40.28;101157.13;4811884;29;827;-60
2022/05/11 05:06:22;;;;;;;;;;;;;;;17.09;40.09;101152.09;4812146;29;833;-58
2022/05/11 05:08:47;;;;;;;;;;;;;;;17.06;39.18;101158.13;4811626;29;937;-59
2022/05/11 05:11:13;;;;;;;;;;;;;;;16.98;39.74;101152.34;4811580;29;820;-58
2022/05/11 05:13:38;;;;;;;;;;;;;;;16.98;39.54;101158.66;4811947;29;1911;-59
2022/05/11 05:16:04;;;;;;;;;;;;;;;17.06;39.93;101165.56;4811258;29;1004;-58
2022/05/11 05:18:29;;;;;;;;;;;;;;;17.08;41.09;101164.22;4811876;29;900;-58
2022/05/11 05:20:55;;;;;;;;;;;;;;;17.29;42.38;101167.03;4811528;29;926;-58
2022/05/11 05:23:21;;;;;;;;;;;;;;;17.48;42.97;101174.81;4812066;29;799;-59
2022/05/11 05:25:47;;;;;;;;;;;;;;;17.56;43.59;101172.34;4811567;29;812;-58
2022/05/11 05:31:06;;;;;;;;;;;;;;;17.78;44.42;101179.56;4810467;29;1323;-57
2022/05/11 05:33:32;;;;;;;;;;;;;;;17.84;44.77;101178.47;4810870;29;1915;-58
2022/05/11 05:35:57;;;;;;;;;;;;;;;17.87;44.99;101179.88;4810944;29;1284;-60
2022/05/11 05:38:23;;;;;;;;;;;;;;;17.94;44.83;101178.53;4811325;29;1221;-58
2022/05/11 05:40:48;;;;;;;;;;;;;;;17.96;45.08;101181.00;4810697;29;1311;-58
2022/05/11 05:43:14;;;;;;;;;;;;;;;17.97;44.99;101193.66;4809736;29;1299;-59
2022/05/11 05:45:40;;;;;;;;;;;;;;;17.99;45.13;101185.94;4811596;29;988;-59
2022/05/11 05:48:05;;;;;;;;;;;;;;;18.05;45.11;101195.88;4810019;29;1130;-59
2022/05/11 05:50:31;;;;;;;;;;;;;;;18.09;44.87;101196.97;4810468;29;1264;-60
2022/05/11 05:52:56;;;;;;;;;;;;;;;18.10;45.07;101198.66;4811020;29;1914;-59
2022/05/11 05:55:22;;;;;;;;;;;;;;;18.15;44.81;101192.31;4810489;29;1392;-60
2022/05/11 05:57:48;;;;;;;;;;;;;;;18.15;44.81;101188.75;4803521;29;1290;-59
2022/05/11 06:00:14;;;;;;;;;;;;;;;18.21;44.85;101195.88;4810591;29;1236;-60
2022/05/11 06:02:39;;;;;;;;;;;;;;;18.18;44.97;101196.44;4810717;29;1237;-59
2022/05/11 06:05:05;;;;;;;;;;;;;;;18.18;45.00;101199.19;4810645;29;1288;-59
2022/05/11 06:07:30;;;;;;;;;;;;;;;18.12;44.71;101193.69;4810442;29;1224;-60
2022/05/11 06:09:56;;;;;;;;;;;;;;;18.05;43.88;101198.63;4810563;29;1288;-60
2022/05/11 06:12:21;;;;;;;;;;;;;;;17.89;43.42;101205.16;4809195;29;1911;-59
2022/05/11 06:14:47;;;;;;;;;;;;;;;17.72;42.22;101200.72;4810177;29;1278;-60
2022/05/11 06:17:20;;;;;;;;;;;;;;;17.56;41.38;101199.84;4810050;29;1287;-59
2022/05/11 06:19:45;;;;;;;;;;;;;;;17.43;40.93;101198.44;4810132;29;1200;-61
2022/05/11 06:22:11;;;;;;;;;;;;;;;17.33;40.49;101190.13;4811200;29;816;-60
2022/05/11 06:24:36;;;;;;;;;;;;;;;17.28;40.26;101199.19;4809859;29;1475;-57
2022/05/11 06:27:03;;;;;;;;;;;;;;;17.23;39.85;101192.84;4809291;29;1209;-59
2022/05/11 06:29:28;;;;;;;;;;;;;;;17.22;39.79;101188.44;4810539;29;875;-60
2022/05/11 06:31:53;;;;;;;;;;;;;;;17.10;40.02;101186.75;4810226;29;1911;-61
2022/05/11 06:34:19;;;;;;;;;;;;;;;17.02;40.03;101200.16;4809658;29;1264;-58
2022/05/11 06:36:44;;;;;;;;;;;;;;;17.09;40.53;101187.81;4810088;29;1252;-58
2022/05/11 06:39:10;;;;;;;;;;;;;;;17.26;41.21;101190.41;4809752;29;1221;-59
2022/05/11 06:41:35;;;;;;;;;;;;;;;17.65;43.71;101186.41;4807634;29;1257;-58
2022/05/11 06:44:03;;;;;;;;;;;;;;;18.12;44.97;101185.41;4808803;29;1362;-59
2022/05/11 06:46:28;;;;;;;;;;;;;;;18.54;45.58;101190.94;4809449;29;1256;-60
2022/05/11 06:48:54;;;;;;;;;;;;;;;18.73;46.40;101185.66;4809285;29;1292;-59
2022/05/11 06:51:19;;;;;;;;;;;;;;;18.84;46.54;101190.03;4809688;29;1286;-59
2022/05/11 06:59:22;;;;;;;;;;;;;;;17.84;43.14;101189.47;4809687;29;1145;-59
2022/05/11 07:01:57;;;;;;;;;;;;;;;17.62;41.94;101192.44;4808669;29;1292;-60
2022/05/11 07:04:23;;;;;;;;;;;;;;;17.50;41.04;101183.59;4809556;29;1181;-59
2022/05/11 07:06:52;;;;;;;;;;;;;;;17.32;40.43;101183.00;4809893;29;1264;-56
2022/05/11 07:09:18;;;;;;;;;;;;;;;17.22;40.04;101182.94;4809162;29;1358;-58
2022/05/11 07:14:28;;;;;;;;;;;;;;;17.11;40.09;101187.59;4807024;29;1146;-58
2022/05/11 07:16:54;;;;;;;;;;;;;;;17.37;42.04;101191.25;4808629;29;1240;-58
2022/05/11 07:19:21;;;;;;;;;;;;;;;17.87;44.54;101186.19;4809277;29;1217;-57
2022/05/11 07:21:47;;;;;;;;;;;;;;;18.26;46.56;101190.41;4809676;29;1275;-57
2022/05/11 07:24:12;;;;;;;;;;;;;;;18.70;47.29;101184.28;4810003;29;757;-57
2022/05/11 07:26:38;;;;;;;;;;;;;;;18.95;47.23;101179.88;4808819;29;1221;-58
2022/05/11 07:29:04;;;;;;;;;;;;;;;18.32;47.88;101183.78;4808793;29;1279;-56
2022/05/11 07:31:29;;;;;;;;;;;;;;;17.78;47.28;101180.41;4809129;29;1907;-56
2022/05/11 07:33:55;;;;;;;;;;;;;;;17.32;46.16;101177.50;4809514;29;764;-57
2022/05/11 07:36:21;;;;;;;;;;;;;;;17.51;43.30;101179.75;4809749;29;863;-57
2022/05/11 07:38:46;;;;;;;;;;;;;;;17.41;42.23;101175.88;4809560;29;756;-56
2022/05/11 07:41:12;;;;;;;;;;;;;;;17.33;41.06;101184.63;4808922;29;890;-57
2022/05/11 07:43:38;;;;;;;;;;;;;;;17.23;40.42;101179.94;4809696;29;794;-59
2022/05/11 07:46:03;;;;;;;;;;;;;;;17.15;40.09;101182.38;4808830;29;1132;-58
2022/05/11 07:48:29;;;;;;;;;;;;;;;17.07;39.60;101176.28;4808571;29;1288;-58
2022/05/11 07:50:54;;;;;;;;;;;;;;;17.10;39.55;101180.44;4808919;29;1295;-58
2022/05/11 07:53:20;;;;;;;;;;;;;;;17.25;40.95;101176.91;4808793;29;1903;-59
2022/05/11 07:55:45;;;;;;;;;;;;;;;17.54;43.14;101181.97;4808461;29;1050;-60
2022/05/11 08:00:55;;;;;;;;;;;;;;;18.51;47.35;101173.03;4808431;29;1201;-59
2022/05/11 08:03:20;;;;;;;;;;;;;;;18.80;47.93;101167.75;4808655;29;1200;-59
2022/05/11 08:05:46;;;;;;;;;;;;;;;18.36;48.83;101170.28;4808980;29;1287;-59
2022/05/11 08:08:11;;;;;;;;;;;;;;;17.76;48.44;101165.25;4811360;29;1197;-58
2022/05/11 08:10:38;;;;;;;;;;;;;;;17.04;47.84;101154.84;4811917;29;1220;-58
2022/05/11 08:13:06;;;;;;;;;;;;;;;17.37;44.42;101158.25;4812592;29;1915;-59
2022/05/11 08:15:32;;;;;;;;;;;;;;;17.40;42.84;101160.50;4811961;29;1248;-59
2022/05/11 08:17:57;;;;;;;;;;;;;;;17.31;41.66;101159.34;4812514;29;1339;-59
2022/05/11 08:20:28;;;;;;;;;;;;;;;17.23;40.98;101151.63;4812088;29;1233;-59
2022/05/11 08:22:54;;;;;;;;;;;;;;;17.17;40.46;101158.22;4811954;29;1231;-58
2022/05/11 08:25:20;;;;;;;;;;;;;;;17.10;39.73;101148.28;4811824;29;1236;-59
2022/05/11 08:27:46;;;;;;;;;;;;;;;17.15;40.55;101144.72;4811943;29;1252;-59
2022/05/11 08:35:40;;;;;;;;;;;;;;;17.51;43.57;101150.34;4810433;29;1260;-59
2022/05/11 08:38:05;;;;;;;;;;;;;;;17.61;43.66;101146.78;4811634;29;1295;-60
2022/05/11 08:40:40;;;;;;;;;;;;;;;17.69;44.22;101153.69;4811968;29;1296;-59
2022/05/11 08:43:12;;;;;;;;;;;;;;;17.76;44.28;101163.31;4811571;29;1231;-59
2022/05/11 08:45:39;;;;;;;;;;;;;;;17.82;44.25;101153.16;4808839;29;1253;-58
2022/05/11 08:48:07;;;;;;;;;;;;;;;17.81;44.70;101157.03;4810404;29;1222;-57
2022/05/11 08:50:33;;;;;;;;;;;;;;;17.84;44.77;101144.63;4811729;29;1336;-59
2022/05/11 08:52:59;;;;;;;;;;;;;;;17.87;44.73;101152.34;4810064;29;1984;-58
2022/05/11 08:55:31;;;;;;;;;;;;;;;17.92;44.69;101153.22;4811525;29;1338;-58
2022/05/11 08:57:57;;;;;;;;;;;;;;;17.94;44.68;101150.19;4809944;29;1264;-57
2022/05/11 09:00:22;;;;;;;;;;;;;;;17.99;44.80;101150.16;4811624;29;992;-58
2022/05/11 09:02:52;;;;;;;;;;;;;;;18.01;44.72;101150.75;4811319;29;1212;-59
2022/05/11 09:05:19;;;;;;;;;;;;;;;18.02;44.56;101149.66;4809889;29;1288;-57
2022/05/11 09:07:47;;;;;;;;;;;;;;;18.05;44.73;101145.53;4811772;29;1315;-57
2022/05/11 09:10:13;;;;;;;;;;;;;;;18.08;44.82;101140.28;4811033;29;1201;-57
2022/05/11 09:12:39;;;;;;;;;;;;;;;18.10;44.59;101140.84;4809956;29;1978;-57
2022/05/11 09:15:05;;;;;;;;;;;;;;;18.13;44.71;101151.31;4810897;29;1228;-57
2022/05/11 09:17:31;;;;;;;;;;;;;;;18.16;44.75;101147.19;4810577;29;1295;-57
2022/05/11 09:20:09;;;;;;;;;;;;;;;18.23;44.60;101138.63;4811465;29;1300;-59
2022/05/11 09:22:38;;;;;;;;;;;;;;;18.23;44.77;101130.34;4811556;29;930;-58
2022/05/11 09:25:17;;;;;;;;;;;;;;;18.25;44.55;101136.44;4811684;29;755;-56
2022/05/11 09:27:43;;;;;;;;;;;;;;;18.21;44.66;101138.91;4810795;29;1737;-59
2022/05/11 09:30:25;;;;;;;;;;;;;;;18.17;44.43;101136.97;4808730;29;1365;-57
2022/05/11 09:32:53;;;;;;;;;;;;;;;18.16;44.17;101149.09;4803869;29;2049;-59
2022/05/11 09:35:24;;;;;;;;;;;;;;;18.11;43.64;101147.97;4802223;29;1026;-59
2022/05/11 09:38:02;;;;;;;;;;;;;;;17.88;42.91;101142.97;4810336;29;1278;-59
2022/05/11 09:40:29;;;;;;;;;;;;;;;17.79;41.63;101143.53;4811286;29;1348;-59
2022/05/11 09:42:55;;;;;;;;;;;;;;;17.61;40.88;101147.63;4811236;29;828;-60
2022/05/11 09:45:39;;;;;;;;;;;;;;;17.54;40.13;101141.53;4810788;29;980;-61
2022/05/11 09:48:22;;;;;;;;;;;;;;;17.34;39.93;101142.31;4810849;29;902;-61
2022/05/11 09:50:52;;;;;;;;;;;;;;;17.25;39.58;101143.91;4810944;29;822;-58
2022/05/11 09:53:22;;;;;;;;;;;;;;;17.23;39.25;101143.38;4811128;29;1974;-59
2022/05/11 09:55:48;;;;;;;;;;;;;;;17.10;39.41;101148.28;4811009;29;1413;-59
2022/05/11 09:58:14;;;;;;;;;;;;;;;17.17;39.95;101142.53;4810602;29;1082;-60
2022/05/11 10:00:40;;;;;;;;;;;;;;;17.27;41.14;101142.56;4808549;29;1323;-59
2022/05/11 10:03:07;;;;;;;;;;;;;;;17.44;41.90;101136.03;4810833;29;847;-59
2022/05/11 10:05:38;;;;;;;;;;;;;;;17.57;42.50;101135.53;4810858;29;843;-59
2022/05/11 10:08:22;;;;;;;;;;;;;;;17.67;42.92;101140.22;4810773;29;770;-60
2022/05/11 10:10:49;;;;;;;;;;;;;;;17.78;43.40;101132.78;4809509;29;683;-59
2022/05/11 10:13:17;;;;;;;;;;;;;;;17.86;43.71;101131.44;4810654;29;1899;-58
2022/05/11 10:24:01;;;;;;;;;;;;;;;17.94;44.12;101119.91;4792487;30;761;-59
2022/05/11 10:26:47;;;;;;;;;;;;;;;17.98;44.16;101115.53;4794580;29;906;-59
2022/05/11 10:29:17;;;;;;;;;;;;;;;18.05;44.06;101123.50;4809266;29;1407;-59
2022/05/11 10:31:48;;;;;;;;;;;;;;;18.05;44.13;101124.31;4810389;29;1976;-60
2022/05/11 10:34:23;;;;;;;;;;;;;;;18.08;44.30;101118.25;4807162;29;850;-60
2022/05/11 10:37:00;;;;;;;;;;;;;;;18.11;44.10;101120.47;4810580;29;768;-60
2022/05/11 10:39:25;;;;;;;;;;;;;;;18.16;43.95;101119.66;4808655;29;852;-60
2022/05/11 10:41:52;;;;;;;;;;;;;;;18.14;44.35;101110.84;4810112;29;915;-60
2022/05/11 10:44:23;;;;;;;;;;;;;;;18.15;44.23;101107.00;4810137;29;829;-60
2022/05/11 10:46:54;;;;;;;;;;;;;;;18.17;44.41;101110.28;4810334;29;1099;-60
2022/05/11 10:49:39;;;;;;;;;;;;;;;18.17;44.14;101109.47;4809847;29;1078;-61
2022/05/11 10:52:23;;;;;;;;;;;;;;;18.19;44.34;101115.50;4809260;29;1907;-60
2022/05/11 10:54:56;;;;;;;;;;;;;;;18.24;44.12;101110.00;4809373;29;1330;-60
2022/05/11 10:57:39;;;;;;;;;;;;;;;18.22;44.16;101113.03;4797294;29;1090;-61
2022/05/11 11:00:06;;;;;;;;;;;;;;;18.21;44.31;101118.81;4794198;29;993;-62
2022/05/11 11:02:38;;;;;;;;;;;;;;;18.20;44.03;101108.91;4809553;29;844;-61
2022/05/11 11:05:18;;;;;;;;;;;;;;;18.20;43.80;101114.41;4809453;29;902;-60
2022/05/11 11:07:54;;;;;;;;;;;;;;;18.06;43.14;101119.63;4809551;29;860;-61
2022/05/11 11:10:20;;;;;;;;;;;;;;;17.91;42.45;101112.22;4809172;29;1070;-61
2022/05/11 11:12:48;;;;;;;;;;;;;;;17.73;41.42;101106.13;4809676;29;1915;-59
2022/05/11 11:15:14;;;;;;;;;;;;;;;17.64;40.92;101101.41;4808928;29;984;-62
2022/05/11 11:17:40;;;;;;;;;;;;;;;17.47;40.15;101112.66;4807762;29;904;-60
2022/05/11 11:20:06;;;;;;;;;;;;;;;17.41;39.77;101104.41;4808570;29;1350;-60
2022/05/11 11:22:50;;;;;;;;;;;;;;;17.31;39.70;101106.31;4806337;29;1322;-60
2022/05/11 11:25:18;;;;;;;;;;;;;;;17.22;39.48;101106.00;4808993;29;1250;-61
2022/05/11 11:28:00;;;;;;;;;;;;;;;17.14;39.49;101106.50;4808971;29;1365;-60
2022/05/11 11:30:26;;;;;;;;;;;;;;;17.12;38.91;101104.03;4808060;29;1274;-62
2022/05/11 11:33:13;;;;;;;;;;;;;;;17.08;39.29;101105.66;4808766;29;1914;-59
2022/05/11 11:35:55;;;;;;;;;;;;;;;17.28;40.50;101100.25;4808670;29;1263;-60
2022/05/11 11:38:44;;;;;;;;;;;;;;;17.61;42.45;101098.13;4808913;29;1270;-61
2022/05/11 11:41:17;;;;;;;;;;;;;;;18.03;44.04;101093.50;4801130;29;1899;-63
2022/05/11 11:43:45;;;;;;;;;;;;;;;18.32;44.80;101090.19;4808275;29;1334;-63
2022/05/11 11:46:26;;;;;;;;;;;;;;;18.51;45.58;101084.06;4808690;29;1235;-62
2022/05/11 11:49:00;;;;;;;;;;;;;;;18.63;46.18;101088.19;4808966;29;1279;-64
2022/05/11 11:51:30;;;;;;;;;;;;;;;18.53;45.72;101079.94;4808205;29;1290;-62
2022/05/11 11:53:56;;;;;;;;;;;;;;;18.36;45.17;101093.22;4808648;29;1907;-62
2022/05/11 11:56:25;;;;;;;;;;;;;;;18.13;44.10;101088.00;4808418;29;1303;-62
2022/05/11 11:59:04;;;;;;;;;;;;;;;17.88;43.09;101072.31;4808521;29;1294;-62
2022/05/11 12:01:30;;;;;;;;;;;;;;;17.75;41.90;101081.94;4808369;29;1266;-61
2022/05/11 12:03:57;;;;;;;;;;;;;;;17.60;41.13;101076.41;4806909;29;1339;-59
2022/05/11 12:17:27;;;;;;;;;;;;;;;17.14;39.02;101054.31;4808519;29;1243;-60
2022/05/11 12:19:59;;;;;;;;;;;;;;;17.12;39.99;101051.00;4807814;29;1357;-59
2022/05/11 12:22:25;;;;;;;;;;;;;;;17.50;41.76;101062.63;4806964;29;1302;-59
2022/05/11 12:25:09;;;;;;;;;;;;;;;17.78;43.47;101051.13;4806692;29;1448;-59
2022/05/11 12:27:35;;;;;;;;;;;;;;;18.13;45.16;101054.97;4807281;29;1057;-59
2022/05/11 12:30:04;;;;;;;;;;;;;;;18.38;46.01;101056.00;4808165;29;1020;-61
2022/05/11 12:32:40;;;;;;;;;;;;;;;18.66;46.30;101055.66;4807853;29;1907;-60
2022/05/11 12:35:08;;;;;;;;;;;;;;;18.73;46.06;101057.03;4807287;29;890;-60
2022/05/11 12:37:35;;;;;;;;;;;;;;;18.46;45.65;101047.19;4808381;29;804;-60
2022/05/11 12:40:20;;;;;;;;;;;;;;;18.30;44.80;101046.41;4808565;29;856;-59
2022/05/11 12:42:47;;;;;;;;;;;;;;;18.08;43.25;101054.16;4807311;29;1847;-59
2022/05/11 12:45:23;;;;;;;;;;;;;;;17.85;42.32;101050.84;4807513;29;1032;-59
2022/05/11 12:47:49;;;;;;;;;;;;;;;17.70;41.53;101046.16;4807971;29;867;-59
2022/05/11 12:50:20;;;;;;;;;;;;;;;17.55;40.75;101041.47;4807903;29;744;-59
2022/05/11 12:52:46;;;;;;;;;;;;;;;17.48;40.23;101042.84;4808471;29;1903;-59
2022/05/11 12:55:12;;;;;;;;;;;;;;;17.44;39.81;101045.31;4809823;29;1107;-59
2022/05/11 12:57:39;;;;;;;;;;;;;;;17.31;39.83;101043.91;4810615;29;1145;-59
2022/05/11 13:00:15;;;;;;;;;;;;;;;17.24;39.85;101043.34;4810541;29;897;-58
2022/05/11 13:02:42;;;;;;;;;;;;;;;17.12;39.53;101045.53;4810925;29;868;-58
2022/05/11 13:05:09;;;;;;;;;;;;;;;17.10;39.48;101035.63;4810364;29;822;-58
2022/05/11 13:07:49;;;;;;;;;;;;;;;17.02;39.58;101032.56;4809859;29;848;-58
2022/05/11 13:10:16;;;;;;;;;;;;;;;17.16;40.29;101033.72;4809524;29;832;-59
2022/05/11 13:12:42;;;;;;;;;;;;;;;17.40;41.70;101030.44;4805564;29;1907;-58
2022/05/11 13:15:08;;;;;;;;;;;;;;;17.75;43.65;101026.91;4802264;29;899;-58
2022/05/11 13:17:34;;;;;;;;;;;;;;;18.03;45.24;101032.97;4804384;29;895;-58
2022/05/11 13:20:01;;;;;;;;;;;;;;;18.31;46.31;101022.44;4804467;29;862;-58
2022/05/11 13:22:28;;;;;;;;;;;;;;;18.55;46.70;101025.44;4804040;29;859;-58
2022/05/11 13:24:55;;;;;;;;;;;;;;;18.73;46.85;101018.47;4803233;29;882;-58
2022/05/11 13:27:37;;;;;;;;;;;;;;;18.69;46.92;101006.38;4764618;29;1204000;-60
2022/05/11 13:30:02;;;;;;;;;;;;;;;18.41;46.16;101011.41;4802963;29;1309;-60
2022/05/11 13:32:28;;;;;;;;;;;;;;;18.22;44.65;101007.63;4804465;29;1911;-60
2022/05/11 13:34:56;;;;;;;;;;;;;;;18.07;43.32;101008.47;4804861;29;1064;-59
2022/05/11 13:37:25;;;;;;;;;;;;;;;17.83;42.09;101005.47;4803493;29;1313;-58
2022/05/11 13:39:51;;;;;;;;;;;;;;;17.68;41.62;101014.53;4809540;29;1167;-58